createdAt,value
2018-12-29T00:01:09.364Z,18.10
2018-12-29T00:03:39.964Z,23.63
2018-12-29T00:06:10.576Z,23.30
2018-12-29T00:08:41.128Z,21.23
2018-12-29T00:11:11.913Z,19.60
2018-12-29T00:13:42.361Z,21.93
2018-12-29T00:16:12.937Z,23.10
2018-12-29T00:18:43.799Z,21.90
2018-12-29T00:21:14.395Z,22.53
2018-12-29T00:23:44.949Z,23.63
2018-12-29T00:26:15.825Z,22.80
2018-12-29T00:28:46.571Z,24.27
2018-12-29T00:31:17.117Z,25.93
2018-12-29T00:33:49.163Z,24.03
2018-12-29T00:36:19.830Z,20.53
2018-12-29T00:38:50.762Z,22.27
2018-12-29T00:41:21.806Z,24.17
2018-12-29T00:43:52.680Z,23.07
2018-12-29T00:46:23.273Z,19.67
2018-12-29T00:48:53.793Z,19.33
2018-12-29T00:51:24.432Z,18.43
2018-12-29T00:53:54.877Z,18.73
2018-12-29T00:56:25.546Z,15.13
2018-12-29T00:58:57.256Z,19.70
2018-12-29T01:01:27.953Z,22.53
2018-12-29T01:03:58.854Z,23.33
2018-12-29T01:06:29.751Z,24.50
2018-12-29T01:09:00.881Z,28.17
2018-12-29T01:11:33.109Z,23.37
2018-12-29T01:14:03.710Z,22.47
2018-12-29T01:16:34.443Z,24.30
2018-12-29T01:19:05.131Z,26.97
2018-12-29T01:21:36.770Z,24.63
2018-12-29T01:24:07.687Z,25.63
2018-12-29T01:26:38.305Z,24.30
2018-12-29T01:29:09.215Z,26.83
2018-12-29T01:31:39.818Z,24.40
2018-12-29T01:34:10.553Z,29.23
2018-12-29T01:36:41.494Z,31.93
2018-12-29T01:39:12.009Z,28.67
2018-12-29T01:41:42.612Z,25.53
2018-12-29T01:44:13.402Z,24.63
2018-12-29T01:46:43.862Z,27.03
2018-12-29T01:49:14.582Z,26.80
2018-12-29T01:51:45.310Z,26.87
2018-12-29T01:54:15.951Z,21.70
2018-12-29T01:56:46.640Z,24.47
2018-12-29T01:59:17.373Z,27.67
2018-12-29T02:01:47.900Z,23.67
2018-12-29T02:04:18.814Z,25.00
2018-12-29T02:06:49.349Z,23.27
2018-12-29T02:09:20.274Z,25.27
2018-12-29T02:11:51.259Z,21.67
2018-12-29T02:14:21.887Z,19.50
2018-12-29T02:16:52.486Z,14.50
2018-12-29T02:19:23.103Z,14.67
2018-12-29T02:21:53.554Z,13.90
2018-12-29T02:24:24.192Z,13.60
2018-12-29T02:26:54.759Z,14.60
2018-12-29T02:29:25.324Z,14.60
2018-12-29T02:31:56.035Z,14.17
2018-12-29T02:34:26.509Z,13.23
2018-12-29T02:36:57.385Z,12.93
2018-12-29T02:39:27.945Z,13.93
2018-12-29T02:41:59.108Z,13.33
2018-12-29T02:44:29.801Z,13.00
2018-12-29T02:47:00.519Z,14.57
2018-12-29T02:49:31.319Z,13.13
2018-12-29T02:52:02.210Z,12.33
2018-12-29T02:54:32.787Z,12.37
2018-12-29T02:57:03.387Z,13.07
2018-12-29T02:59:34.079Z,13.23
2018-12-29T03:02:04.983Z,13.57
2018-12-29T03:04:35.552Z,14.30
2018-12-29T03:07:06.270Z,11.77
2018-12-29T03:09:36.981Z,11.63
2018-12-29T03:12:07.472Z,13.20
2018-12-29T03:14:38.506Z,11.83
2018-12-29T03:17:10.783Z,12.10
2018-12-29T03:19:41.496Z,12.77
2018-12-29T03:22:11.984Z,12.53
2018-12-29T03:24:42.874Z,13.53
2018-12-29T03:27:13.438Z,13.47
2018-12-29T03:29:44.278Z,13.40
2018-12-29T03:32:14.752Z,13.63
2018-12-29T03:34:45.277Z,14.17
2018-12-29T03:37:15.854Z,13.77
2018-12-29T03:39:46.546Z,13.83
2018-12-29T03:42:17.342Z,14.47
2018-12-29T03:44:48.003Z,14.33
2018-12-29T03:47:18.607Z,14.50
2018-12-29T03:49:49.271Z,12.07
2018-12-29T03:52:19.968Z,13.00
2018-12-29T03:54:50.494Z,12.43
2018-12-29T03:57:21.364Z,15.20
2018-12-29T03:59:52.151Z,14.73
2018-12-29T04:02:23.088Z,13.57
2018-12-29T04:04:53.918Z,12.53
2018-12-29T04:07:24.682Z,10.83
2018-12-29T04:09:55.743Z,11.47
2018-12-29T04:12:28.605Z,10.07
2018-12-29T04:14:59.571Z,10.10
2018-12-29T04:17:30.114Z,9.57
2018-12-29T04:20:00.822Z,9.97
2018-12-29T04:22:31.535Z,10.30
2018-12-29T04:25:02.177Z,9.27
2018-12-29T04:27:32.812Z,9.47
2018-12-29T04:30:03.328Z,9.07
2018-12-29T04:32:33.801Z,8.63
2018-12-29T04:35:04.790Z,8.50
2018-12-29T04:37:35.474Z,8.17
2018-12-29T04:40:06.340Z,9.03
2018-12-29T04:42:36.998Z,8.03
2018-12-29T04:45:07.702Z,8.93
2018-12-29T04:47:38.373Z,8.67
2018-12-29T04:50:09.442Z,9.03
2018-12-29T04:52:40.149Z,9.07
2018-12-29T04:55:10.699Z,8.93
2018-12-29T04:57:41.293Z,7.80
2018-12-29T05:00:11.756Z,7.70
2018-12-29T05:02:42.241Z,8.50
2018-12-29T05:05:12.689Z,8.23
2018-12-29T05:07:43.617Z,7.90
2018-12-29T05:10:14.157Z,7.87
2018-12-29T05:12:44.649Z,7.00
2018-12-29T05:15:15.190Z,7.23
2018-12-29T05:17:45.950Z,6.93
2018-12-29T05:20:16.412Z,6.40
2018-12-29T05:22:46.931Z,6.80
2018-12-29T05:25:17.676Z,6.40
2018-12-29T05:27:48.175Z,6.10
2018-12-29T05:30:19.209Z,5.53
2018-12-29T05:32:49.689Z,5.70
2018-12-29T05:35:20.496Z,5.73
2018-12-29T05:37:51.053Z,5.40
2018-12-29T05:40:21.898Z,6.40
2018-12-29T05:42:52.692Z,6.03
2018-12-29T05:45:23.437Z,5.80
2018-12-29T05:47:54.177Z,6.70
2018-12-29T05:50:24.740Z,6.30
2018-12-29T05:52:55.396Z,7.53
2018-12-29T05:55:26.183Z,7.13
2018-12-29T05:57:56.929Z,7.07
2018-12-29T06:00:27.734Z,7.40
2018-12-29T06:02:58.618Z,6.77
2018-12-29T06:05:29.077Z,7.03
2018-12-29T06:07:59.937Z,6.77
2018-12-29T06:10:30.868Z,6.43
2018-12-29T06:13:02.428Z,6.60
2018-12-29T06:15:33.112Z,7.03
2018-12-29T06:18:03.699Z,6.47
2018-12-29T06:20:34.398Z,7.00
2018-12-29T06:23:05.088Z,7.63
2018-12-29T06:25:35.616Z,8.50
2018-12-29T06:28:06.318Z,9.60
2018-12-29T06:30:36.876Z,9.97
2018-12-29T06:33:07.589Z,9.37
2018-12-29T06:35:38.029Z,10.70
2018-12-29T06:38:08.665Z,11.83
2018-12-29T06:40:39.259Z,11.50
2018-12-29T06:43:10.065Z,12.60
2018-12-29T06:45:40.765Z,11.83
2018-12-29T06:48:11.549Z,12.63
2018-12-29T06:50:42.229Z,11.63
2018-12-29T06:53:13.065Z,12.30
2018-12-29T06:55:43.695Z,10.83
2018-12-29T06:58:14.380Z,10.33
2018-12-29T07:00:45.063Z,8.23
2018-12-29T07:03:15.563Z,9.70
2018-12-29T07:05:46.121Z,7.77
2018-12-29T07:08:16.963Z,8.50
2018-12-29T07:10:47.611Z,8.33
2018-12-29T07:13:18.445Z,8.70
2018-12-29T07:15:49.036Z,9.00
2018-12-29T07:18:19.993Z,11.13
2018-12-29T07:20:50.531Z,8.80
2018-12-29T07:23:21.054Z,8.40
2018-12-29T07:25:51.691Z,8.53
2018-12-29T07:28:22.438Z,7.70
2018-12-29T07:30:53.647Z,6.80
2018-12-29T07:33:24.350Z,6.97
2018-12-29T07:35:54.935Z,7.10
2018-12-29T07:38:25.725Z,6.70
2018-12-29T07:40:56.260Z,7.70
2018-12-29T07:43:26.770Z,7.10
2018-12-29T07:45:57.443Z,7.37
2018-12-29T07:48:28.926Z,9.90
2018-12-29T07:50:59.412Z,7.93
2018-12-29T07:53:29.986Z,7.33
2018-12-29T07:56:00.556Z,7.87
2018-12-29T07:58:31.076Z,8.70
2018-12-29T08:01:01.644Z,8.87
2018-12-29T08:03:32.408Z,8.87
2018-12-29T08:06:03.139Z,9.93
2018-12-29T08:08:33.852Z,8.57
2018-12-29T08:11:04.355Z,9.63
2018-12-29T08:13:34.905Z,9.93
2018-12-29T08:16:05.423Z,10.13
2018-12-29T08:18:38.452Z,8.60
2018-12-29T08:21:09.047Z,10.50
2018-12-29T08:23:39.842Z,9.83
2018-12-29T08:26:10.492Z,10.43
2018-12-29T08:28:41.075Z,11.40
2018-12-29T08:31:11.637Z,12.43
2018-12-29T08:33:42.171Z,10.63
2018-12-29T08:36:12.733Z,11.57
2018-12-29T08:38:43.399Z,12.63
2018-12-29T08:41:13.896Z,11.30
2018-12-29T08:43:44.481Z,12.90
2018-12-29T08:46:15.057Z,11.37
2018-12-29T08:48:45.580Z,10.63
2018-12-29T08:51:16.155Z,12.53
2018-12-29T08:53:46.918Z,12.83
2018-12-29T08:56:17.590Z,11.53
2018-12-29T08:58:48.668Z,12.47
2018-12-29T09:01:19.218Z,10.33
2018-12-29T09:03:49.800Z,12.17
2018-12-29T09:06:20.425Z,12.30
2018-12-29T09:08:51.048Z,12.73
2018-12-29T09:11:21.602Z,11.30
2018-12-29T09:13:52.108Z,11.10
2018-12-29T09:16:22.671Z,11.60
2018-12-29T09:18:53.538Z,10.40
2018-12-29T09:21:24.166Z,12.43
2018-12-29T09:23:54.756Z,11.77
2018-12-29T09:26:25.495Z,10.83
2018-12-29T09:28:56.272Z,10.50
2018-12-29T09:31:26.838Z,10.53
2018-12-29T09:33:57.590Z,9.97
2018-12-29T09:36:28.109Z,10.27
2018-12-29T09:38:58.898Z,10.83
2018-12-29T09:41:30.328Z,10.97
2018-12-29T09:44:00.940Z,10.70
2018-12-29T09:46:32.091Z,12.00
2018-12-29T09:49:02.711Z,13.23
2018-12-29T09:51:33.410Z,14.73
2018-12-29T09:54:04.059Z,14.60
2018-12-29T09:56:34.645Z,14.50
2018-12-29T09:59:05.311Z,14.47
2018-12-29T10:01:37.466Z,16.70
2018-12-29T10:04:08.147Z,14.37
2018-12-29T10:06:38.828Z,18.87
2018-12-29T10:09:09.377Z,19.77
2018-12-29T10:11:40.319Z,16.73
2018-12-29T10:14:10.975Z,15.53
2018-12-29T10:16:41.592Z,14.83
2018-12-29T10:19:12.197Z,15.63
2018-12-29T10:21:42.923Z,13.87
2018-12-29T10:24:13.511Z,11.47
2018-12-29T10:26:44.200Z,11.83
2018-12-29T10:29:15.178Z,11.10
2018-12-29T10:31:46.144Z,12.87
2018-12-29T10:34:16.906Z,12.43
2018-12-29T10:36:47.538Z,20.03
2018-12-29T10:39:18.245Z,21.73
2018-12-29T10:41:49.046Z,15.67
2018-12-29T10:44:19.907Z,13.33
2018-12-29T10:46:51.064Z,15.37
2018-12-29T10:49:22.054Z,14.07
2018-12-29T10:51:52.804Z,13.37
2018-12-29T10:54:23.561Z,14.43
2018-12-29T10:56:54.514Z,14.97
2018-12-29T10:59:26.409Z,12.17
2018-12-29T11:01:57.054Z,12.40
2018-12-29T11:04:27.687Z,14.10
2018-12-29T11:06:58.238Z,13.47
2018-12-29T11:09:28.953Z,14.57
2018-12-29T11:11:59.651Z,15.40
2018-12-29T11:14:30.542Z,14.00
2018-12-29T11:17:01.510Z,13.43
2018-12-29T11:19:32.137Z,11.87
2018-12-29T11:22:03.024Z,13.83
2018-12-29T11:24:33.992Z,11.47
2018-12-29T11:27:04.799Z,12.53
2018-12-29T11:29:35.504Z,12.13
2018-12-29T11:32:06.406Z,12.83
2018-12-29T11:34:37.028Z,12.27
2018-12-29T11:37:07.881Z,11.77
2018-12-29T11:39:38.301Z,8.67
2018-12-29T11:42:09.040Z,10.20
2018-12-29T11:44:39.841Z,9.57
2018-12-29T11:47:10.718Z,9.53
2018-12-29T11:49:41.195Z,10.33
2018-12-29T11:52:11.826Z,11.57
2018-12-29T11:54:43.897Z,10.90
2018-12-29T11:57:14.524Z,11.90
2018-12-29T11:59:45.057Z,11.90
2018-12-29T12:02:15.677Z,12.47
2018-12-29T12:04:46.441Z,14.27
2018-12-29T12:07:18.127Z,13.53
2018-12-29T12:09:48.683Z,14.33
2018-12-29T12:12:19.300Z,17.37
2018-12-29T12:14:49.800Z,16.10
2018-12-29T12:17:20.692Z,16.33
2018-12-29T12:19:51.272Z,13.83
2018-12-29T12:22:21.808Z,15.10
2018-12-29T12:24:52.518Z,13.87
2018-12-29T12:27:24.001Z,14.67
2018-12-29T12:29:54.849Z,13.70
2018-12-29T12:32:25.449Z,14.20
2018-12-29T12:34:56.284Z,16.50
2018-12-29T12:37:26.810Z,14.23
2018-12-29T12:39:57.916Z,14.70
2018-12-29T12:42:28.476Z,13.10
2018-12-29T12:44:59.379Z,13.03
2018-12-29T12:47:30.074Z,14.73
2018-12-29T12:50:00.592Z,13.20
2018-12-29T12:52:31.692Z,13.23
2018-12-29T12:55:02.295Z,14.17
2018-12-29T12:57:32.851Z,14.17
2018-12-29T13:00:03.887Z,15.00
2018-12-29T13:02:35.127Z,16.93
2018-12-29T13:05:05.786Z,15.03
2018-12-29T13:07:36.436Z,14.53
2018-12-29T13:10:08.069Z,13.57
2018-12-29T13:12:38.873Z,12.07
2018-12-29T13:15:09.539Z,15.97
2018-12-29T13:17:40.021Z,16.57
2018-12-29T13:20:10.435Z,15.60
2018-12-29T13:22:41.151Z,18.00
2018-12-29T13:25:12.761Z,16.73
2018-12-29T13:27:43.336Z,16.83
2018-12-29T13:30:13.848Z,17.40
2018-12-29T13:32:44.479Z,19.03
2018-12-29T13:35:14.876Z,23.77
2018-12-29T13:37:45.463Z,19.50
2018-12-29T13:40:16.095Z,20.90
2018-12-29T13:42:47.034Z,20.03
2018-12-29T13:45:17.796Z,20.80
2018-12-29T13:47:48.508Z,21.47
2018-12-29T13:50:19.551Z,22.27
2018-12-29T13:52:50.039Z,20.13
2018-12-29T13:55:21.061Z,21.43
2018-12-29T13:57:51.582Z,21.60
2018-12-29T14:00:22.051Z,23.00
2018-12-29T14:02:53.030Z,23.77
2018-12-29T14:05:23.648Z,25.27
2018-12-29T14:07:54.355Z,24.07
2018-12-29T14:10:25.175Z,21.13
2018-12-29T14:12:55.824Z,22.33
2018-12-29T14:15:26.867Z,24.00
2018-12-29T14:17:57.712Z,22.47
2018-12-29T14:20:28.514Z,22.93
2018-12-29T14:22:59.401Z,24.83
2018-12-29T14:25:30.351Z,23.40
2018-12-29T14:28:01.249Z,24.83
2018-12-29T14:30:32.323Z,20.27
2018-12-29T14:33:03.230Z,27.80
2018-12-29T14:35:34.074Z,29.50
2018-12-29T14:38:05.297Z,26.93
2018-12-29T14:40:36.180Z,30.43
2018-12-29T14:43:06.980Z,27.50
2018-12-29T14:45:37.745Z,32.43
2018-12-29T14:48:09.017Z,27.43
2018-12-29T14:50:40.219Z,30.37
2018-12-29T14:53:10.954Z,28.93
2018-12-29T14:55:41.815Z,29.13
2018-12-29T14:58:12.428Z,29.93
2018-12-29T15:00:43.259Z,27.27
2018-12-29T15:03:14.095Z,27.17
2018-12-29T15:05:44.824Z,28.13
2018-12-29T15:08:15.598Z,26.20
2018-12-29T15:10:46.205Z,22.60
2018-12-29T15:13:17.292Z,26.63
2018-12-29T15:15:47.882Z,25.47
2018-12-29T15:18:18.970Z,28.60
2018-12-29T15:20:49.803Z,25.87
2018-12-29T15:23:20.588Z,26.60
2018-12-29T15:25:51.906Z,25.27
2018-12-29T15:28:22.771Z,26.43
2018-12-29T15:30:53.332Z,22.83
2018-12-29T15:33:23.814Z,24.17
2018-12-29T15:35:54.581Z,24.50
2018-12-29T15:38:25.268Z,26.63
2018-12-29T15:40:56.443Z,25.13
2018-12-29T15:43:26.996Z,22.77
2018-12-29T15:45:57.859Z,23.10
2018-12-29T15:48:28.492Z,23.43
2018-12-29T15:51:00.781Z,21.27
2018-12-29T15:53:31.393Z,25.63
2018-12-29T15:56:02.126Z,23.27
2018-12-29T15:58:33.166Z,24.07
2018-12-29T16:01:03.800Z,24.27
2018-12-29T16:03:34.317Z,23.57
2018-12-29T16:06:04.874Z,24.27
2018-12-29T16:08:35.655Z,25.20
2018-12-29T16:11:06.304Z,23.73
2018-12-29T16:13:37.462Z,21.70
2018-12-29T16:16:08.053Z,24.70
2018-12-29T16:18:38.572Z,25.20
2018-12-29T16:21:09.062Z,26.60
2018-12-29T16:23:39.809Z,25.23
2018-12-29T16:26:12.742Z,26.90
2018-12-29T16:28:42.801Z,25.03
2018-12-29T16:31:13.733Z,25.80
2018-12-29T16:33:44.307Z,27.90
2018-12-29T16:36:17.159Z,26.73
2018-12-29T16:38:47.939Z,27.57
2018-12-29T16:41:19.612Z,26.07
2018-12-29T16:43:50.421Z,25.60
2018-12-29T16:46:21.163Z,25.53
2018-12-29T16:48:51.771Z,28.47
2018-12-29T16:51:22.549Z,26.33
2018-12-29T16:53:53.590Z,27.97
2018-12-29T16:56:25.919Z,27.13
2018-12-29T16:58:56.768Z,27.70
2018-12-29T17:01:27.310Z,26.57
2018-12-29T17:03:57.963Z,26.67
2018-12-29T17:06:29.130Z,25.10
2018-12-29T17:08:59.865Z,22.50
2018-12-29T17:11:30.868Z,24.97
2018-12-29T17:14:01.508Z,23.57
2018-12-29T17:16:32.445Z,24.07
2018-12-29T17:19:03.215Z,26.00
2018-12-29T17:21:34.003Z,23.97
2018-12-29T17:24:05.230Z,27.30
2018-12-29T17:26:36.051Z,23.87
2018-12-29T17:29:06.809Z,23.10
2018-12-29T17:31:37.506Z,26.87
2018-12-29T17:34:08.848Z,28.97
2018-12-29T17:36:41.970Z,27.77
2018-12-29T17:39:11.885Z,27.33
2018-12-29T17:41:42.558Z,24.83
2018-12-29T17:44:13.092Z,24.97
2018-12-29T17:46:43.585Z,23.07
2018-12-29T17:49:22.467Z,24.90
2018-12-29T17:51:48.059Z,24.00
2018-12-29T17:54:18.588Z,23.17
2018-12-29T17:56:49.375Z,25.60
2018-12-29T17:59:20.273Z,23.03
2018-12-29T18:01:51.160Z,23.37
2018-12-29T18:04:21.729Z,23.90
2018-12-29T18:06:52.608Z,22.97
2018-12-29T18:09:23.259Z,23.87
2018-12-29T18:11:54.570Z,24.23
2018-12-29T18:14:25.125Z,23.43
2018-12-29T18:16:55.837Z,25.73
2018-12-29T18:19:47.400Z,24.40
2018-12-29T18:21:58.826Z,24.07
2018-12-29T18:24:29.445Z,24.63
2018-12-29T18:27:00.053Z,24.43
2018-12-29T18:29:30.867Z,24.50
2018-12-29T18:32:01.905Z,26.07
2018-12-29T18:34:32.664Z,27.17
2018-12-29T18:37:03.643Z,29.13
2018-12-29T18:39:35.314Z,24.00
2018-12-29T18:42:06.220Z,28.00
2018-12-29T18:44:36.758Z,26.30
2018-12-29T18:47:07.244Z,24.77
2018-12-29T18:49:38.649Z,25.13
2018-12-29T18:52:09.811Z,23.83
2018-12-29T18:54:40.249Z,25.83
2018-12-29T18:57:11.067Z,24.17
2018-12-29T18:59:41.810Z,21.70
2018-12-29T19:02:12.512Z,24.37
2018-12-29T19:04:43.691Z,25.50
2018-12-29T19:07:14.290Z,24.90
2018-12-29T19:09:45.868Z,22.23
2018-12-29T19:12:16.537Z,24.63
2018-12-29T19:14:47.264Z,23.33
2018-12-29T19:17:18.000Z,25.83
2018-12-29T19:19:49.186Z,25.60
2018-12-29T19:22:19.827Z,26.50
2018-12-29T19:24:50.510Z,25.10
2018-12-29T19:27:20.986Z,28.13
2018-12-29T19:29:51.723Z,29.23
2018-12-29T19:32:22.256Z,28.13
2018-12-29T19:34:53.671Z,28.47
2018-12-29T19:37:24.287Z,27.07
2018-12-29T19:39:54.796Z,29.93
2018-12-29T19:42:25.378Z,27.13
2018-12-29T19:44:55.940Z,27.30
2018-12-29T19:47:27.505Z,24.40
2018-12-29T19:49:58.946Z,25.43
2018-12-29T19:52:29.427Z,23.20
2018-12-29T19:55:00.165Z,21.17
2018-12-29T19:57:30.567Z,23.47
2018-12-29T20:00:01.064Z,28.97
2018-12-29T20:02:32.144Z,28.40
2018-12-29T20:05:03.178Z,27.97
2018-12-29T20:07:33.930Z,25.50
2018-12-29T20:10:04.838Z,24.63
2018-12-29T20:12:36.242Z,21.43
2018-12-29T20:15:07.258Z,22.20
2018-12-29T20:17:38.135Z,21.53
2018-12-29T20:20:08.876Z,19.83
2018-12-29T20:22:39.568Z,18.60
2018-12-29T20:25:10.293Z,20.47
2018-12-29T20:27:40.980Z,19.93
2018-12-29T20:30:12.534Z,18.73
2018-12-29T20:32:43.186Z,18.30
2018-12-29T20:35:13.937Z,20.13
2018-12-29T20:37:44.479Z,17.40
2018-12-29T20:40:15.283Z,20.73
2018-12-29T20:42:45.852Z,20.60
2018-12-29T20:45:16.494Z,20.00
2018-12-29T20:47:47.185Z,22.07
2018-12-29T20:50:18.293Z,23.30
2018-12-29T20:52:48.756Z,21.87
2018-12-29T20:55:19.470Z,21.33
2018-12-29T20:57:50.173Z,24.60
2018-12-29T21:00:20.850Z,25.60
2018-12-29T21:02:51.551Z,19.53
2018-12-29T21:05:22.530Z,22.13
2018-12-29T21:07:53.118Z,21.37
2018-12-29T21:10:24.049Z,22.67
2018-12-29T21:12:54.892Z,21.73
2018-12-29T21:15:25.902Z,21.23
2018-12-29T21:17:56.956Z,24.37
2018-12-29T21:20:27.704Z,21.33
2018-12-29T21:22:58.284Z,24.97
2018-12-29T21:25:28.933Z,23.87
2018-12-29T21:27:59.901Z,23.47
2018-12-29T21:30:30.545Z,27.77
2018-12-29T21:33:01.262Z,24.27
2018-12-29T21:35:32.060Z,25.00
2018-12-29T21:38:02.774Z,21.97
2018-12-29T21:40:33.775Z,24.47
2018-12-29T21:43:04.533Z,25.70
2018-12-29T21:45:35.281Z,26.47
2018-12-29T21:48:05.978Z,23.67
2018-12-29T21:50:36.830Z,24.13
2018-12-29T21:53:07.298Z,19.57
2018-12-29T21:55:38.046Z,21.43
2018-12-29T21:58:08.574Z,19.67
2018-12-29T22:00:39.351Z,20.73
2018-12-29T22:03:10.187Z,18.90
2018-12-29T22:05:40.941Z,18.70
2018-12-29T22:08:12.489Z,18.00
2018-12-29T22:10:43.325Z,18.83
2018-12-29T22:13:13.925Z,19.57
2018-12-29T22:15:44.667Z,19.07
2018-12-29T22:18:15.312Z,22.27
2018-12-29T22:20:45.931Z,20.90
2018-12-29T22:23:16.508Z,26.23
2018-12-29T22:25:48.377Z,26.80
2018-12-29T22:28:19.206Z,26.27
2018-12-29T22:30:50.012Z,26.10
2018-12-29T22:33:20.779Z,26.27
2018-12-29T22:35:51.427Z,23.93
2018-12-29T22:38:22.432Z,24.77
2018-12-29T22:40:53.078Z,26.40
2018-12-29T22:43:23.603Z,25.60
2018-12-29T22:45:54.195Z,23.03
2018-12-29T22:48:24.945Z,27.13
2018-12-29T22:50:55.705Z,27.47
2018-12-29T22:53:26.333Z,28.57
2018-12-29T22:55:56.931Z,25.40
2018-12-29T22:58:27.809Z,26.87
2018-12-29T23:00:58.575Z,29.43
2018-12-29T23:03:29.275Z,28.90
2018-12-29T23:06:00.137Z,28.80
2018-12-29T23:08:30.683Z,24.77
2018-12-29T23:11:01.627Z,25.73
2018-12-29T23:13:32.276Z,33.53
2018-12-29T23:16:03.351Z,25.80
2018-12-29T23:18:33.920Z,29.53
2018-12-29T23:21:04.563Z,27.90
2018-12-29T23:23:35.064Z,25.97
2018-12-29T23:26:05.709Z,29.33
2018-12-29T23:28:36.784Z,28.10
2018-12-29T23:31:08.161Z,24.53
2018-12-29T23:33:38.868Z,26.30
2018-12-29T23:36:09.514Z,25.00
2018-12-29T23:38:39.977Z,22.20
2018-12-29T23:41:10.867Z,24.37
2018-12-29T23:43:41.944Z,24.03
2018-12-29T23:46:12.792Z,20.67
2018-12-29T23:48:43.516Z,22.60
2018-12-29T23:51:14.087Z,19.40
2018-12-29T23:53:44.669Z,20.90
2018-12-29T23:56:16.712Z,21.50
2018-12-29T23:58:48.026Z,22.80
